Latest Weather Observations for Banana Bank

IDQ60801

Issued at 5:05 pm EST Thursday 31 July 2014 (issued every 30 minutes, with the page automatically refreshed every 10 minutes)

About weather observations | Map of weather stations | Latest weather observations for QLD | Other Formats
Station Details ID: 040925 Name: BANANA BANK NORTH BEACON Lat: -27.53 Lon: 153.33 Height: 7.0 m
Data from the previous 72 hours. | See also: Recent months for locations in Queensland
Date/Time
EST
Temp
°C
App
Temp
°C
Dew
Point
Rel
Hum
%
Delta-T
°C
Wind Press
QNH
hPa
Press
MSL
hPa
Rain
since 9 am
mm
Dir
 
Spd
km/h
Gust
km/h
Spd
kts
Gust
kts
31/05:00pm - - - - - N 15 20 8 11 - - -
31/04:30pm - - - - - N 17 22 9 12 - - -
31/04:00pm - - - - - N 19 20 10 11 - - -
31/03:30pm - - - - - N 17 22 9 12 - - -
31/03:00pm - - - - - N 19 20 10 11 - - -
31/02:30pm - - - - - N 17 19 9 10 - - -
31/02:00pm - - - - - N 17 20 9 11 - - -
31/01:30pm - - - - - N 15 17 8 9 - - -
31/01:00pm - - - - - N 15 17 8 9 - - -
31/12:30pm - - - - - N 11 15 6 8 - - -
31/12:00pm - - - - - N 11 13 6 7 - - -
31/11:30am - - - - - N 9 9 5 5 - - -
31/11:00am - - - - - NNW 7 9 4 5 - - -
31/10:30am - - - - - NNW 9 11 5 6 - - -
31/10:00am - - - - - NNW 6 9 3 5 - - -
31/09:30am - - - - - WNW 4 6 2 3 - - -
31/09:00am - - - - - WNW 6 7 3 4 - - -
31/08:30am - - - - - NW 6 7 3 4 - - -
31/08:00am - - - - - WNW 6 7 3 4 - - -
31/07:30am - - - - - W 6 7 3 4 - - -
31/07:00am - - - - - WSW 7 11 4 6 - - -
31/06:30am - - - - - WSW 4 6 2 3 - - -
31/06:00am - - - - - W 6 7 3 4 - - -
31/05:30am - - - - - W 6 7 3 4 - - -
31/05:00am - - - - - WNW 6 9 3 5 - - -
31/04:30am - - - - - W 6 7 3 4 - - -
31/04:00am - - - - - SW 4 6 2 3 - - -
31/03:30am - - - - - SW 6 9 3 5 - - -
31/03:00am - - - - - SW 9 13 5 7 - - -
31/02:30am - - - - - NW 9 11 5 6 - - -
31/02:00am - - - - - WNW 11 13 6 7 - - -
31/01:30am - - - - - NW 15 19 8 10 - - -
31/01:00am - - - - - NNW 13 17 7 9 - - -
31/12:30am - - - - - NNW 19 22 10 12 - - -
31/12:00am - - - - - NNW 11 15 6 8 - - -
 
Date/Time
EST
Temp
°C
App
Temp
°C
Dew
Point
Rel
Hum
%
Delta-T
°C
Wind Press
QNH
hPa
Press
MSL
hPa
Rain
since 9 am
mm
Dir
 
Spd
km/h
Gust
km/h
Spd
kts
Gust
kts
30/11:30pm - - - - - NNW 13 17 7 9 - - -
30/11:00pm - - - - - N 9 11 5 6 - - -
30/10:30pm - - - - - WNW 6 7 3 4 - - -
30/10:00pm - - - - - CALM 0 0 0 0 - - -
30/09:30pm - - - - - N 6 7 3 4 - - -
30/09:00pm - - - - - N 11 11 6 6 - - -
30/08:30pm - - - - - NNE 7 7 4 4 - - -
30/08:00pm - - - - - NNE 7 7 4 4 - - -
30/07:30pm - - - - - NE 9 11 5 6 - - -
30/07:00pm - - - - - ENE 4 6 2 3 - - -
30/06:30pm - - - - - NE 6 7 3 4 - - -
30/06:00pm - - - - - NE 11 13 6 7 - - -
30/05:30pm - - - - - NE 11 15 6 8 - - -
30/05:00pm - - - - - NNE 11 13 6 7 - - -
30/04:30pm - - - - - NE 9 11 5 6 - - -
30/04:00pm - - - - - N 13 15 7 8 - - -
30/03:30pm - - - - - NNE 9 13 5 7 - - -
30/03:00pm - - - - - NNE 11 15 6 8 - - -
30/02:30pm - - - - - NNE 7 11 4 6 - - -
30/02:00pm - - - - - ENE 9 11 5 6 - - -
30/01:30pm - - - - - NNE 9 13 5 7 - - -
30/01:00pm - - - - - N 11 13 6 7 - - -
30/12:30pm - - - - - N 15 17 8 9 - - -
30/12:00pm - - - - - N 13 15 7 8 - - -
30/11:30am - - - - - N 9 13 5 7 - - -
30/11:00am - - - - - N 9 11 5 6 - - -
30/10:30am - - - - - N 7 9 4 5 - - -
30/10:00am - - - - - NW 6 7 3 4 - - -
30/09:30am - - - - - NW 4 6 2 3 - - -
30/09:00am - - - - - WNW 7 9 4 5 - - -
30/08:30am - - - - - W 7 9 4 5 - - -
30/08:00am - - - - - W 4 6 2 3 - - -
30/07:30am - - - - - WNW 9 13 5 7 - - -
30/07:00am - - - - - WNW 11 13 6 7 - - -
30/06:30am - - - - - NW 9 11 5 6 - - -
30/06:00am - - - - - WNW 7 9 4 5 - - -
30/05:30am - - - - - SW 4 6 2 3 - - -
30/05:00am - - - - - SSW 4 6 2 3 - - -
30/04:30am - - - - - CALM 0 0 0 0 - - -
30/04:00am - - - - - SW 6 6 3 3 - - -
30/03:30am - - - - - WNW 9 9 5 5 - - -
30/03:00am - - - - - W 4 6 2 3 - - -
30/02:30am - - - - - W 4 4 2 2 - - -
30/02:00am - - - - - CALM 0 0 0 0 - - -
30/01:30am - - - - - SSW 6 6 3 3 - - -
30/01:00am - - - - - SSW 9 9 5 5 - - -
30/12:30am - - - - - E 2 4 1 2 - - -
30/12:00am - - - - - SE 4 6 2 3 - - -
 
Date/Time
EST
Temp
°C
App
Temp
°C
Dew
Point
Rel
Hum
%
Delta-T
°C
Wind Press
QNH
hPa
Press
MSL
hPa
Rain
since 9 am
mm
Dir
 
Spd
km/h
Gust
km/h
Spd
kts
Gust
kts
29/11:30pm - - - - - SSE 7 11 4 6 - - -
29/11:00pm - - - - - SSE 2 4 1 2 - - -
29/10:30pm - - - - - CALM 0 0 0 0 - - -
29/10:00pm - - - - - CALM 0 0 0 0 - - -
29/09:30pm - - - - - SSW 4 6 2 3 - - -
29/09:00pm - - - - - SSW 6 7 3 4 - - -
29/08:30pm - - - - - CALM 0 0 0 0 - - -
29/08:00pm - - - - - CALM 0 0 0 0 - - -
29/07:30pm - - - - - NNW 4 4 2 2 - - -
29/07:00pm - - - - - NNE 6 9 3 5 - - -
29/06:30pm - - - - - NNE 11 15 6 8 - - -
29/06:00pm - - - - - NNE 9 11 5 6 - - -
29/05:30pm - - - - - NNE 9 9 5 5 - - -
29/05:00pm - - - - - NNE 9 11 5 6 - - -
29/04:30pm - - - - - NE 9 11 5 6 - - -
29/04:00pm - - - - - NE 13 13 7 7 - - -
29/03:30pm - - - - - NE 13 15 7 8 - - -
29/03:00pm - - - - - NE 11 13 6 7 - - -
29/02:30pm - - - - - N 11 13 6 7 - - -
29/02:00pm - - - - - N 7 13 4 7 - - -
29/01:30pm - - - - - W 19 26 10 14 - - -
29/01:00pm - - - - - W 20 24 11 13 - - -
29/12:30pm - - - - - W 20 26 11 14 - - -
29/12:00pm - - - - - W 20 26 11 14 - - -
29/11:30am - - - - - ENE 2 6 1 3 - - -
29/11:00am - - - - - E 2 4 1 2 - - -
29/10:30am - - - - - CALM 0 0 0 0 - - -
29/10:00am - - - - - CALM 0 0 0 0 - - -
29/09:30am - - - - - CALM 0 0 0 0 - - -
29/09:00am - - - - - SW 4 6 2 3 - - -
29/08:30am - - - - - WNW 4 7 2 4 - - -
29/08:00am - - - - - W 6 9 3 5 - - -
29/07:30am - - - - - W 9 11 5 6 - - -
29/07:00am - - - - - NW 9 11 5 6 - - -
29/06:30am - - - - - NNW 2 4 1 2 - - -
29/06:00am - - - - - W 6 7 3 4 - - -
29/05:30am - - - - - NW 7 9 4 5 - - -
29/05:00am - - - - - NW 9 13 5 7 - - -
29/04:30am - - - - - NW 6 7 3 4 - - -
29/04:00am - - - - - WNW 7 9 4 5 - - -
29/03:30am - - - - - W 4 7 2 4 - - -
29/03:00am - - - - - W 6 7 3 4 - - -
29/02:30am - - - - - W 7 9 4 5 - - -
29/02:00am - - - - - WNW 11 13 6 7 - - -
29/01:30am - - - - - WNW 11 15 6 8 - - -
29/01:00am - - - - - NW 11 13 6 7 - - -
29/12:30am - - - - - NNW 7 9 4 5 - - -
29/12:00am - - - - - NNW 9 9 5 5 - - -
 
Date/Time
EST
Temp
°C
App
Temp
°C
Dew
Point
Rel
Hum
%
Delta-T
°C
Wind Press
QNH
hPa
Press
MSL
hPa
Rain
since 9 am
mm
Dir
 
Spd
km/h
Gust
km/h
Spd
kts
Gust
kts
28/11:30pm - - - - - NW 6 7 3 4 - - -
28/11:00pm - - - - - NW 7 9 4 5 - - -
28/10:30pm - - - - - NW 11 11 6 6 - - -
28/10:00pm - - - - - NW 11 13 6 7 - - -
28/09:30pm - - - - - NW 11 13 6 7 - - -
28/09:00pm - - - - - NW 9 13 5 7 - - -
28/08:30pm - - - - - NNW 9 11 5 6 - - -
28/08:00pm - - - - - NNW 11 11 6 6 - - -
28/07:30pm - - - - - NNW 11 13 6 7 - - -
28/07:00pm - - - - - NW 7 9 4 5 - - -
28/06:30pm - - - - - N 9 11 5 6 - - -
28/06:00pm - - - - - NNE 13 17 7 9 - - -
28/05:30pm - - - - - NNE 17 20 9 11 - - -

Other Formats:

Comma delimited format used in spreadsheet applications
http://www.bom.gov.au/fwo/IDQ60801/IDQ60801.94591.axf

JavaScript Object Notation format (JSON) in row-major order
http://www.bom.gov.au/fwo/IDQ60801/IDQ60801.94591.json